sensor_id;sensor_type;location;lat;lon;timestamp;P1;durP1;ratioP1;P2;durP2;ratioP2
24084;SDS011;12268;52.110;5.548;2022-08-27T00:01:20;6.55;;;2.78;;
24084;SDS011;12268;52.110;5.548;2022-08-27T00:03:46;5.72;;;2.80;;
24084;SDS011;12268;52.110;5.548;2022-08-27T00:06:12;4.78;;;2.95;;
24084;SDS011;12268;52.110;5.548;2022-08-27T00:08:40;5.78;;;2.90;;
24084;SDS011;12268;52.110;5.548;2022-08-27T00:11:07;9.93;;;3.25;;
24084;SDS011;12268;52.110;5.548;2022-08-27T00:13:33;6.25;;;3.17;;
24084;SDS011;12268;52.110;5.548;2022-08-27T00:15:59;6.15;;;3.28;;
24084;SDS011;12268;52.110;5.548;2022-08-27T00:18:25;7.13;;;3.08;;
24084;SDS011;12268;52.110;5.548;2022-08-27T00:20:50;11.90;;;3.30;;
24084;SDS011;12268;52.110;5.548;2022-08-27T00:23:16;8.05;;;3.00;;
24084;SDS011;12268;52.110;5.548;2022-08-27T00:25:41;10.55;;;3.20;;
24084;SDS011;12268;52.110;5.548;2022-08-27T00:28:07;5.00;;;3.10;;
24084;SDS011;12268;52.110;5.548;2022-08-27T00:30:33;4.97;;;2.65;;
24084;SDS011;12268;52.110;5.548;2022-08-27T00:32:58;7.28;;;3.05;;
24084;SDS011;12268;52.110;5.548;2022-08-27T00:35:24;8.05;;;2.90;;
24084;SDS011;12268;52.110;5.548;2022-08-27T00:37:50;8.23;;;3.47;;
24084;SDS011;12268;52.110;5.548;2022-08-27T00:40:19;7.85;;;2.90;;
24084;SDS011;12268;52.110;5.548;2022-08-27T00:42:46;5.47;;;3.10;;
24084;SDS011;12268;52.110;5.548;2022-08-27T00:45:13;12.38;;;3.60;;
24084;SDS011;12268;52.110;5.548;2022-08-27T00:47:47;5.82;;;2.95;;
24084;SDS011;12268;52.110;5.548;2022-08-27T00:50:19;10.52;;;3.40;;
24084;SDS011;12268;52.110;5.548;2022-08-27T00:53:01;6.15;;;3.17;;
24084;SDS011;12268;52.110;5.548;2022-08-27T00:55:38;6.72;;;2.65;;
24084;SDS011;12268;52.110;5.548;2022-08-27T00:58:10;5.20;;;3.20;;
24084;SDS011;12268;52.110;5.548;2022-08-27T01:00:41;7.72;;;3.13;;
24084;SDS011;12268;52.110;5.548;2022-08-27T01:03:08;7.57;;;3.17;;
24084;SDS011;12268;52.110;5.548;2022-08-27T01:05:33;6.47;;;3.28;;
24084;SDS011;12268;52.110;5.548;2022-08-27T01:08:10;5.38;;;2.97;;
24084;SDS011;12268;52.110;5.548;2022-08-27T01:10:39;9.50;;;3.28;;
24084;SDS011;12268;52.110;5.548;2022-08-27T01:13:06;6.18;;;3.20;;
24084;SDS011;12268;52.110;5.548;2022-08-27T01:15:33;9.25;;;3.70;;
24084;SDS011;12268;52.110;5.548;2022-08-27T01:17:58;5.60;;;3.30;;
24084;SDS011;12268;52.110;5.548;2022-08-27T01:20:27;7.00;;;3.20;;
24084;SDS011;12268;52.110;5.548;2022-08-27T01:23:03;8.65;;;3.47;;
24084;SDS011;12268;52.110;5.548;2022-08-27T01:25:40;6.22;;;2.90;;
24084;SDS011;12268;52.110;5.548;2022-08-27T01:28:06;6.72;;;3.00;;
24084;SDS011;12268;52.110;5.548;2022-08-27T01:30:33;8.13;;;3.40;;
24084;SDS011;12268;52.110;5.548;2022-08-27T01:33:00;5.95;;;3.20;;
24084;SDS011;12268;52.110;5.548;2022-08-27T01:35:33;9.98;;;3.65;;
24084;SDS011;12268;52.110;5.548;2022-08-27T01:37:59;6.50;;;3.40;;
24084;SDS011;12268;52.110;5.548;2022-08-27T01:40:26;7.00;;;3.17;;
24084;SDS011;12268;52.110;5.548;2022-08-27T01:42:52;6.38;;;3.38;;
24084;SDS011;12268;52.110;5.548;2022-08-27T01:45:31;6.70;;;3.03;;
24084;SDS011;12268;52.110;5.548;2022-08-27T01:47:59;6.03;;;3.35;;
24084;SDS011;12268;52.110;5.548;2022-08-27T01:50:27;5.75;;;3.20;;
24084;SDS011;12268;52.110;5.548;2022-08-27T01:53:01;8.32;;;3.30;;
24084;SDS011;12268;52.110;5.548;2022-08-27T01:55:28;7.25;;;3.33;;
24084;SDS011;12268;52.110;5.548;2022-08-27T01:57:54;9.48;;;3.40;;
24084;SDS011;12268;52.110;5.548;2022-08-27T02:00:23;4.55;;;3.00;;
24084;SDS011;12268;52.110;5.548;2022-08-27T02:02:51;7.45;;;3.20;;
24084;SDS011;12268;52.110;5.548;2022-08-27T02:05:17;7.18;;;3.13;;
24084;SDS011;12268;52.110;5.548;2022-08-27T02:07:43;10.32;;;3.35;;
24084;SDS011;12268;52.110;5.548;2022-08-27T02:10:10;9.30;;;3.25;;
24084;SDS011;12268;52.110;5.548;2022-08-27T02:12:37;5.85;;;2.95;;
24084;SDS011;12268;52.110;5.548;2022-08-27T02:15:04;6.00;;;3.63;;
24084;SDS011;12268;52.110;5.548;2022-08-27T02:17:30;5.75;;;3.20;;
24084;SDS011;12268;52.110;5.548;2022-08-27T02:19:56;4.50;;;2.72;;
24084;SDS011;12268;52.110;5.548;2022-08-27T02:22:22;6.63;;;3.17;;
24084;SDS011;12268;52.110;5.548;2022-08-27T02:24:48;9.55;;;3.28;;
24084;SDS011;12268;52.110;5.548;2022-08-27T02:27:14;7.43;;;3.28;;
24084;SDS011;12268;52.110;5.548;2022-08-27T02:29:39;5.72;;;3.50;;
24084;SDS011;12268;52.110;5.548;2022-08-27T02:32:05;6.50;;;3.13;;
24084;SDS011;12268;52.110;5.548;2022-08-27T02:34:30;8.32;;;2.90;;
24084;SDS011;12268;52.110;5.548;2022-08-27T02:36:56;7.22;;;3.58;;
24084;SDS011;12268;52.110;5.548;2022-08-27T02:39:22;6.90;;;3.28;;
24084;SDS011;12268;52.110;5.548;2022-08-27T02:41:47;6.95;;;3.70;;
24084;SDS011;12268;52.110;5.548;2022-08-27T02:44:13;7.78;;;3.67;;
24084;SDS011;12268;52.110;5.548;2022-08-27T02:46:39;5.78;;;3.10;;
24084;SDS011;12268;52.110;5.548;2022-08-27T02:49:05;8.25;;;2.97;;
24084;SDS011;12268;52.110;5.548;2022-08-27T02:51:31;7.70;;;3.30;;
24084;SDS011;12268;52.110;5.548;2022-08-27T02:53:57;7.45;;;3.25;;
24084;SDS011;12268;52.110;5.548;2022-08-27T02:56:23;5.97;;;3.20;;
24084;SDS011;12268;52.110;5.548;2022-08-27T02:58:49;8.93;;;3.38;;
24084;SDS011;12268;52.110;5.548;2022-08-27T03:01:14;7.28;;;3.20;;
24084;SDS011;12268;52.110;5.548;2022-08-27T03:03:40;7.60;;;3.65;;
24084;SDS011;12268;52.110;5.548;2022-08-27T03:06:06;5.78;;;3.20;;
24084;SDS011;12268;52.110;5.548;2022-08-27T03:08:31;5.53;;;3.40;;
24084;SDS011;12268;52.110;5.548;2022-08-27T03:10:57;8.95;;;3.88;;
24084;SDS011;12268;52.110;5.548;2022-08-27T03:13:23;7.57;;;3.47;;
24084;SDS011;12268;52.110;5.548;2022-08-27T03:15:50;8.02;;;3.58;;
24084;SDS011;12268;52.110;5.548;2022-08-27T03:18:15;7.70;;;3.60;;
24084;SDS011;12268;52.110;5.548;2022-08-27T03:20:47;7.03;;;3.72;;
24084;SDS011;12268;52.110;5.548;2022-08-27T03:23:15;5.43;;;3.63;;
24084;SDS011;12268;52.110;5.548;2022-08-27T03:25:43;8.25;;;3.90;;
24084;SDS011;12268;52.110;5.548;2022-08-27T03:28:11;6.88;;;3.55;;
24084;SDS011;12268;52.110;5.548;2022-08-27T03:30:39;7.10;;;3.88;;
24084;SDS011;12268;52.110;5.548;2022-08-27T03:33:06;7.07;;;3.72;;
24084;SDS011;12268;52.110;5.548;2022-08-27T03:35:32;7.50;;;3.35;;
24084;SDS011;12268;52.110;5.548;2022-08-27T03:37:58;7.93;;;3.60;;
24084;SDS011;12268;52.110;5.548;2022-08-27T03:40:23;9.93;;;3.90;;
24084;SDS011;12268;52.110;5.548;2022-08-27T03:42:49;10.63;;;3.45;;
24084;SDS011;12268;52.110;5.548;2022-08-27T03:45:15;8.25;;;3.78;;
24084;SDS011;12268;52.110;5.548;2022-08-27T03:47:40;7.55;;;3.75;;
24084;SDS011;12268;52.110;5.548;2022-08-27T03:50:06;7.95;;;3.78;;
24084;SDS011;12268;52.110;5.548;2022-08-27T03:52:33;4.72;;;3.33;;
24084;SDS011;12268;52.110;5.548;2022-08-27T03:54:59;8.25;;;4.28;;
24084;SDS011;12268;52.110;5.548;2022-08-27T03:57:26;7.40;;;4.00;;
24084;SDS011;12268;52.110;5.548;2022-08-27T03:59:51;8.45;;;3.78;;
24084;SDS011;12268;52.110;5.548;2022-08-27T04:02:17;7.88;;;3.40;;
24084;SDS011;12268;52.110;5.548;2022-08-27T04:04:43;7.18;;;3.78;;
24084;SDS011;12268;52.110;5.548;2022-08-27T04:07:09;8.38;;;3.88;;
24084;SDS011;12268;52.110;5.548;2022-08-27T04:09:34;9.45;;;3.83;;
24084;SDS011;12268;52.110;5.548;2022-08-27T04:12:00;9.13;;;3.70;;
24084;SDS011;12268;52.110;5.548;2022-08-27T04:14:26;9.32;;;3.40;;
24084;SDS011;12268;52.110;5.548;2022-08-27T04:16:51;9.88;;;3.55;;
24084;SDS011;12268;52.110;5.548;2022-08-27T04:19:18;8.55;;;4.15;;
24084;SDS011;12268;52.110;5.548;2022-08-27T04:21:44;6.25;;;3.55;;
24084;SDS011;12268;52.110;5.548;2022-08-27T04:24:09;8.90;;;4.35;;
24084;SDS011;12268;52.110;5.548;2022-08-27T04:26:37;7.55;;;4.15;;
24084;SDS011;12268;52.110;5.548;2022-08-27T04:29:04;8.18;;;4.30;;
24084;SDS011;12268;52.110;5.548;2022-08-27T04:31:30;7.50;;;4.28;;
24084;SDS011;12268;52.110;5.548;2022-08-27T04:33:55;13.10;;;4.40;;
24084;SDS011;12268;52.110;5.548;2022-08-27T04:36:21;7.75;;;4.00;;
24084;SDS011;12268;52.110;5.548;2022-08-27T04:38:47;13.05;;;3.95;;
24084;SDS011;12268;52.110;5.548;2022-08-27T04:41:12;7.97;;;4.07;;
24084;SDS011;12268;52.110;5.548;2022-08-27T04:43:49;11.32;;;4.30;;
24084;SDS011;12268;52.110;5.548;2022-08-27T04:46:24;7.65;;;3.35;;
24084;SDS011;12268;52.110;5.548;2022-08-27T04:48:51;7.40;;;4.15;;
24084;SDS011;12268;52.110;5.548;2022-08-27T04:51:17;8.57;;;3.95;;
24084;SDS011;12268;52.110;5.548;2022-08-27T04:53:43;7.32;;;4.03;;
24084;SDS011;12268;52.110;5.548;2022-08-27T04:56:11;7.18;;;4.35;;
24084;SDS011;12268;52.110;5.548;2022-08-27T04:58:39;8.80;;;3.70;;
24084;SDS011;12268;52.110;5.548;2022-08-27T05:01:05;8.50;;;4.00;;
24084;SDS011;12268;52.110;5.548;2022-08-27T05:03:31;9.50;;;4.03;;
24084;SDS011;12268;52.110;5.548;2022-08-27T05:06:02;7.97;;;4.40;;
24084;SDS011;12268;52.110;5.548;2022-08-27T05:08:29;13.88;;;4.13;;
24084;SDS011;12268;52.110;5.548;2022-08-27T05:10:56;8.63;;;4.10;;
24084;SDS011;12268;52.110;5.548;2022-08-27T05:13:22;10.27;;;4.18;;
24084;SDS011;12268;52.110;5.548;2022-08-27T05:15:48;7.38;;;3.95;;
24084;SDS011;12268;52.110;5.548;2022-08-27T05:18:21;5.97;;;3.83;;
24084;SDS011;12268;52.110;5.548;2022-08-27T05:20:46;11.65;;;4.38;;
24084;SDS011;12268;52.110;5.548;2022-08-27T05:23:13;8.38;;;4.20;;
24084;SDS011;12268;52.110;5.548;2022-08-27T05:25:42;8.18;;;3.92;;
24084;SDS011;12268;52.110;5.548;2022-08-27T05:28:10;8.32;;;3.83;;
24084;SDS011;12268;52.110;5.548;2022-08-27T05:30:38;10.57;;;4.10;;
24084;SDS011;12268;52.110;5.548;2022-08-27T10:54:38;4.28;;;1.15;;
24084;SDS011;12268;52.110;5.548;2022-08-27T10:57:15;7.82;;;1.52;;
24084;SDS011;12268;52.110;5.548;2022-08-27T11:00:04;5.25;;;1.25;;
24084;SDS011;12268;52.110;5.548;2022-08-27T11:05:14;3.97;;;1.30;;
24084;SDS011;12268;52.110;5.548;2022-08-27T13:17:19;3.97;;;1.33;;
24084;SDS011;12268;52.110;5.548;2022-08-27T13:19:47;6.45;;;1.83;;
24084;SDS011;12268;52.110;5.548;2022-08-27T13:22:51;7.32;;;1.60;;
24084;SDS011;12268;52.110;5.548;2022-08-27T13:27:56;4.45;;;1.50;;
24084;SDS011;12268;52.110;5.548;2022-08-27T13:30:28;5.55;;;1.70;;
24084;SDS011;12268;52.110;5.548;2022-08-27T13:32:55;6.32;;;1.73;;
24084;SDS011;12268;52.110;5.548;2022-08-27T13:35:22;8.18;;;1.63;;
24084;SDS011;12268;52.110;5.548;2022-08-27T16:47:13;4.95;;;1.30;;
24084;SDS011;12268;52.110;5.548;2022-08-27T16:49:39;6.78;;;1.70;;
24084;SDS011;12268;52.110;5.548;2022-08-27T16:52:23;5.28;;;1.50;;
24084;SDS011;12268;52.110;5.548;2022-08-27T16:54:49;7.10;;;1.90;;
24084;SDS011;12268;52.110;5.548;2022-08-27T16:57:15;6.05;;;2.00;;
24084;SDS011;12268;52.110;5.548;2022-08-27T16:59:41;2.90;;;1.55;;
24084;SDS011;12268;52.110;5.548;2022-08-27T17:02:10;4.72;;;1.60;;
24084;SDS011;12268;52.110;5.548;2022-08-27T17:04:42;3.63;;;1.67;;
24084;SDS011;12268;52.110;5.548;2022-08-27T19:16:47;6.00;;;1.83;;
24084;SDS011;12268;52.110;5.548;2022-08-27T19:19:17;7.35;;;2.33;;
24084;SDS011;12268;52.110;5.548;2022-08-27T19:21:43;4.32;;;2.00;;
24084;SDS011;12268;52.110;5.548;2022-08-27T19:24:09;4.40;;;2.50;;
24084;SDS011;12268;52.110;5.548;2022-08-27T19:26:35;5.20;;;2.30;;
24084;SDS011;12268;52.110;5.548;2022-08-27T19:29:02;7.43;;;2.25;;
24084;SDS011;12268;52.110;5.548;2022-08-27T19:31:28;5.32;;;1.92;;
24084;SDS011;12268;52.110;5.548;2022-08-27T19:33:55;5.82;;;2.30;;
24084;SDS011;12268;52.110;5.548;2022-08-27T20:48:46;7.00;;;2.95;;
24084;SDS011;12268;52.110;5.548;2022-08-27T20:51:12;6.25;;;2.50;;
24084;SDS011;12268;52.110;5.548;2022-08-27T20:53:37;6.38;;;2.83;;
24084;SDS011;12268;52.110;5.548;2022-08-27T20:56:03;7.00;;;2.90;;
24084;SDS011;12268;52.110;5.548;2022-08-27T20:58:28;4.88;;;2.80;;
24084;SDS011;12268;52.110;5.548;2022-08-27T21:01:12;6.03;;;3.10;;
24084;SDS011;12268;52.110;5.548;2022-08-27T21:03:38;8.93;;;2.80;;
24084;SDS011;12268;52.110;5.548;2022-08-27T21:06:04;9.45;;;3.28;;
24084;SDS011;12268;52.110;5.548;2022-08-27T21:16:16;8.80;;;3.13;;
24084;SDS011;12268;52.110;5.548;2022-08-27T21:18:41;9.30;;;3.35;;
24084;SDS011;12268;52.110;5.548;2022-08-27T21:21:07;7.53;;;3.53;;
24084;SDS011;12268;52.110;5.548;2022-08-27T21:23:34;7.93;;;3.40;;
24084;SDS011;12268;52.110;5.548;2022-08-27T21:26:05;8.52;;;3.70;;
24084;SDS011;12268;52.110;5.548;2022-08-27T21:28:34;8.30;;;3.50;;
24084;SDS011;12268;52.110;5.548;2022-08-27T21:31:04;8.70;;;3.47;;
24084;SDS011;12268;52.110;5.548;2022-08-27T21:33:30;9.43;;;3.50;;
24084;SDS011;12268;52.110;5.548;2022-08-27T21:35:58;9.20;;;3.45;;
24084;SDS011;12268;52.110;5.548;2022-08-27T22:48:19;11.00;;;4.45;;
24084;SDS011;12268;52.110;5.548;2022-08-27T22:50:45;9.35;;;4.90;;
24084;SDS011;12268;52.110;5.548;2022-08-27T22:53:10;13.50;;;5.30;;
24084;SDS011;12268;52.110;5.548;2022-08-27T22:55:36;13.32;;;4.60;;
24084;SDS011;12268;52.110;5.548;2022-08-27T22:58:02;8.63;;;4.80;;
24084;SDS011;12268;52.110;5.548;2022-08-27T23:00:29;8.25;;;4.20;;
24084;SDS011;12268;52.110;5.548;2022-08-27T23:02:57;10.52;;;5.15;;
24084;SDS011;12268;52.110;5.548;2022-08-27T23:05:25;7.60;;;4.32;;
